Terminal Aerodrome Forecast
Issued by NWS Knoxville/Tri Cities, TN

Home | Current Version | Previous Version | Text Only | Print | Product List | Glossary On
Versions: 1 2 3 4 5 6 7 8 9 10 11 12 13 14 15 16 17 18 19 20 21 22 23 24 25 26 27 28 29 30 31 32
000
FTUS44 KMRX 252320
TAFTRI
TAF
KTRI 252320Z 2600/2624 21003KT P6SM VCSH OVC050
     FM260400 22003KT 4SM -RA BR BKN020
     FM260900 24004KT 2SM -RA BR OVC015
     FM261200 26008KT 1SM -RA BR OVC007
     FM261900 28009KT P6SM OVC015=

USA.gov is the U.S. government's official web portal to all federal, state and local government web resources and services.